Ampeg V4.com

forum

You are not logged in.

Ampeg Heads

Topic Replies Views Last post
2 527 2020-04-14 17:26:44 by rowell
0 253 2020-03-23 20:35:27 by rowell
3 1993 2020-03-11 14:52:28 by rowell
VT22 reverb by nastynotch347
1 1948 2018-03-24 16:47:37 by Tony
1 1578 2016-04-21 07:37:14 by GreaserMatt
15 9208 2016-04-21 06:52:07 by GreaserMatt
0 1359 2015-10-02 17:08:35 by jay42
V2 Faceplate High Res PDF??? by Holy Schnikes
1 2763 2015-08-28 15:53:28 by Steelyman
1 2395 2015-08-07 20:52:24 by jay42
3 inputs on V4B ? by patmac
1 1695 2015-08-07 20:47:23 by jay42
Biasing a '70 SVT by msaudio
0 1378 2015-06-11 20:35:32 by msaudio
Need amp tech for V4 by kestrou
0 1644 2015-02-03 14:59:56 by kestrou
1 2013 2014-10-06 09:52:12 by waltdogg
vt22 footswitch question by nocoastjames
1 1865 2014-10-01 14:32:59 by nocoastjames
1 2776 2014-09-10 02:29:27 by reb
Spam posting by ROBO
2 2194 2014-09-02 20:23:30 by waltdogg
Magnavox V4 by jarrym
0 1992 2014-06-14 21:10:05 by jarrym
1 2246 2014-06-13 03:46:32 by ROBO
0 1726 2014-06-12 07:48:40 by Jon K
3 3057 2014-06-03 07:46:47 by meexiko
New guy with a '70 VT-22 by nastynotch347
6 3926 2014-05-23 02:31:29 by hangman
V2 new PCB by Jon K
7 5080 2014-05-20 21:19:54 by Steelyman
1 2259 2014-05-12 04:38:35 by rowfour
0 1638 2014-04-22 19:27:07 by prb2
1 1931 2014-04-09 08:40:30 by hangman
2 2470 2014-04-08 04:00:50 by doug_olitsky
Ampeg V-4 Whistling? by waltdogg
5 3705 2014-03-15 17:34:45 by waltdogg
4 3411 2014-03-13 21:46:03 by waltdogg
Ampeg V4 Plate Voltage by ca_mccar
1 2438 2014-02-15 14:56:05 by teles
7 4310 2014-02-01 22:46:52 by jackobfranklin

Board footer

Powered by PunBB
© Copyright 2002–2005 Rickard Andersson